Time;durP1;ratioP1;P1;durP2;ratioP2;P2;SDS_P1;SDS_P2;PMS_P1;PMS_P2;Temp;Humidity;BMP_temperature;BMP_pressure;BME280_temperature;BME280_humidity;BME280_pressure;Samples;Min_cycle;Max_cycle;Signal;HPM_P1;HPM_P2
2023/05/30 00:00:27;;;;;;;16.05;6.85;;;;;;;;;;6307232;22;20454;-83
2023/05/30 00:02:53;;;;;;;14.80;7.10;;;;;;;;;;6279258;22;20068;-82
2023/05/30 00:05:19;;;;;;;17.63;7.28;;;;;;;;;;6280122;22;20337;-84
2023/05/30 00:07:45;;;;;;;19.88;7.60;;;;;;;;;;6280691;22;20026;-84
2023/05/30 00:10:12;;;;;;;14.88;7.28;;;;;;;;;;6280133;22;20063;-83
2023/05/30 00:12:40;;;;;;;16.98;6.97;;;;;;;;;;6279937;22;20011;-83
2023/05/30 00:15:07;;;;;;;17.42;8.25;;;;;;;;;;6279357;22;20011;-84
2023/05/30 00:17:35;;;;;;;27.63;7.90;;;;;;;;;;6279049;22;20045;-83
2023/05/30 00:20:01;;;;;;;23.58;8.50;;;;;;;;;;6279644;22;20018;-82
2023/05/30 00:22:28;;;;;;;23.42;8.40;;;;;;;;;;6307203;22;20065;-83
2023/05/30 00:24:55;;;;;;;18.85;7.25;;;;;;;;;;6306854;22;20017;-83
2023/05/30 00:27:21;;;;;;;15.23;7.78;;;;;;;;;;6254020;22;20350;-82
2023/05/30 00:29:47;;;;;;;19.00;8.15;;;;;;;;;;6253992;22;20011;-83
2023/05/30 00:32:13;;;;;;;13.00;6.65;;;;;;;;;;6279648;22;20007;-84
2023/05/30 00:34:40;;;;;;;17.23;6.75;;;;;;;;;;6279502;22;20015;-83
2023/05/30 00:37:08;;;;;;;15.98;7.15;;;;;;;;;;6280228;22;20011;-83
2023/05/30 00:39:34;;;;;;;16.13;6.97;;;;;;;;;;6253707;22;20069;-83
2023/05/30 00:42:00;;;;;;;18.75;8.05;;;;;;;;;;6254328;22;20365;-83
2023/05/30 00:44:26;;;;;;;16.88;6.57;;;;;;;;;;6279429;22;20015;-83
2023/05/30 00:46:53;;;;;;;14.65;8.00;;;;;;;;;;6252817;22;20018;-83
2023/05/30 00:49:19;;;;;;;17.73;7.97;;;;;;;;;;6279301;22;20011;-83
2023/05/30 00:51:46;;;;;;;18.10;7.03;;;;;;;;;;6280340;22;20026;-82
2023/05/30 00:54:12;;;;;;;20.25;7.70;;;;;;;;;;6310626;22;20448;-84
2023/05/30 00:56:38;;;;;;;18.10;7.10;;;;;;;;;;6291584;22;20015;-84
2023/05/30 00:59:05;;;;;;;14.63;6.80;;;;;;;;;;6315433;22;20019;-83
2023/05/30 01:01:32;;;;;;;16.77;6.88;;;;;;;;;;6287575;22;20015;-83
2023/05/30 01:03:59;;;;;;;14.45;6.60;;;;;;;;;;6310957;22;20011;-83
2023/05/30 01:06:27;;;;;;;18.25;7.85;;;;;;;;;;6283766;22;20026;-83
2023/05/30 01:08:54;;;;;;;19.15;7.20;;;;;;;;;;6257210;22;20294;-84
2023/05/30 01:11:31;;;;;;;19.63;7.28;;;;;;;;;;6257801;22;20047;-84
2023/05/30 01:13:57;;;;;;;13.60;6.70;;;;;;;;;;6256807;22;20009;-83
2023/05/30 01:16:26;;;;;;;16.13;6.70;;;;;;;;;;6256848;22;20107;-84
2023/05/30 01:19:06;;;;;;;14.90;6.43;;;;;;;;;;6257625;22;20022;-83
2023/05/30 01:21:32;;;;;;;16.00;7.50;;;;;;;;;;6258061;22;20011;-82
2023/05/30 01:24:06;;;;;;;16.23;6.80;;;;;;;;;;6282976;22;20432;-82
2023/05/30 01:26:32;;;;;;;18.40;6.20;;;;;;;;;;6282940;22;20014;-82
2023/05/30 01:29:02;;;;;;;18.48;6.72;;;;;;;;;;6256465;22;20094;-83
2023/05/30 01:31:28;;;;;;;21.48;6.88;;;;;;;;;;6256408;22;20449;-83
2023/05/30 01:33:54;;;;;;;18.83;6.85;;;;;;;;;;6256729;22;20345;-83
2023/05/30 01:36:21;;;;;;;16.83;7.88;;;;;;;;;;6283262;22;20011;-83
2023/05/30 01:38:47;;;;;;;16.75;6.55;;;;;;;;;;6256385;22;20007;-83
2023/05/30 01:41:42;;;;;;;13.75;7.63;;;;;;;;;;6282418;22;20472;-84
2023/05/30 01:44:21;;;;;;;16.70;6.60;;;;;;;;;;6224649;22;20307;-83
2023/05/30 01:46:52;;;;;;;12.88;6.75;;;;;;;;;;6257511;22;20014;-83
2023/05/30 01:49:28;;;;;;;17.48;6.97;;;;;;;;;;6283105;22;20011;-81
2023/05/30 01:52:02;;;;;;;20.27;6.60;;;;;;;;;;6282820;22;20008;-83
2023/05/30 01:54:29;;;;;;;19.33;6.28;;;;;;;;;;6256808;22;20007;-84
2023/05/30 01:57:01;;;;;;;14.88;7.72;;;;;;;;;;6281688;22;20015;-83
2023/05/30 01:59:27;;;;;;;17.05;7.00;;;;;;;;;;6256272;22;20090;-83
2023/05/30 02:01:54;;;;;;;15.13;6.88;;;;;;;;;;6257281;22;20089;-84
2023/05/30 02:04:20;;;;;;;14.63;5.95;;;;;;;;;;6308260;22;20136;-84
2023/05/30 02:06:46;;;;;;;15.27;6.80;;;;;;;;;;6254484;22;20015;-84
2023/05/30 02:09:12;;;;;;;18.60;6.18;;;;;;;;;;6253473;22;20069;-84
2023/05/30 02:11:38;;;;;;;17.30;7.25;;;;;;;;;;6252911;22;20511;-84
2023/05/30 02:14:05;;;;;;;16.58;6.93;;;;;;;;;;6254299;22;20462;-83
2023/05/30 02:16:31;;;;;;;16.35;7.15;;;;;;;;;;6279711;22;20007;-84
2023/05/30 02:18:57;;;;;;;18.55;7.57;;;;;;;;;;6255705;22;20019;-83
2023/05/30 02:21:23;;;;;;;15.23;6.05;;;;;;;;;;6255383;22;20011;-82
2023/05/30 02:23:49;;;;;;;17.20;7.45;;;;;;;;;;6280314;22;20015;-83
2023/05/30 02:26:15;;;;;;;29.30;7.65;;;;;;;;;;6254803;22;20081;-84
2023/05/30 02:28:41;;;;;;;15.25;7.05;;;;;;;;;;6255254;22;20015;-83
2023/05/30 02:31:07;;;;;;;23.10;7.30;;;;;;;;;;6281486;22;20012;-83
2023/05/30 02:33:33;;;;;;;16.48;7.43;;;;;;;;;;6255055;22;20014;-84
2023/05/30 02:35:59;;;;;;;14.32;7.05;;;;;;;;;;6255326;22;20039;-83
2023/05/30 02:38:25;;;;;;;16.33;7.57;;;;;;;;;;6281857;22;20007;-82
2023/05/30 02:40:52;;;;;;;19.85;7.30;;;;;;;;;;6255077;22;20015;-83
2023/05/30 02:43:18;;;;;;;19.27;7.03;;;;;;;;;;6281221;22;20468;-82
2023/05/30 02:45:44;;;;;;;17.90;7.85;;;;;;;;;;6281182;22;20015;-83
2023/05/30 02:48:10;;;;;;;16.98;8.45;;;;;;;;;;6255438;22;20012;-83
2023/05/30 02:50:36;;;;;;;19.08;8.57;;;;;;;;;;6254905;22;20017;-83
2023/05/30 02:53:02;;;;;;;20.63;7.75;;;;;;;;;;6280536;22;20012;-83
2023/05/30 02:55:28;;;;;;;19.60;8.15;;;;;;;;;;6280741;22;20022;-83
2023/05/30 02:57:54;;;;;;;15.88;7.38;;;;;;;;;;6280307;22;20018;-84
2023/05/30 03:00:20;;;;;;;13.73;7.30;;;;;;;;;;6262239;22;20007;-83
2023/05/30 03:02:47;;;;;;;17.15;8.52;;;;;;;;;;6259046;22;20015;-82
2023/05/30 03:05:13;;;;;;;17.77;7.43;;;;;;;;;;6288633;22;20040;-84
2023/05/30 03:07:39;;;;;;;17.52;8.43;;;;;;;;;;6286497;22;20433;-83
2023/05/30 03:10:06;;;;;;;16.40;8.25;;;;;;;;;;6280026;22;20457;-83
2023/05/30 03:12:32;;;;;;;17.75;7.68;;;;;;;;;;6307478;22;20015;-83
2023/05/30 03:14:58;;;;;;;17.40;8.57;;;;;;;;;;6280457;22;20007;-83
2023/05/30 03:17:24;;;;;;;15.23;7.57;;;;;;;;;;6253863;22;20366;-84
2023/05/30 03:19:51;;;;;;;16.98;7.80;;;;;;;;;;6277885;22;20011;-83
2023/05/30 03:22:17;;;;;;;14.13;7.22;;;;;;;;;;6278553;22;20012;-83
2023/05/30 03:24:43;;;;;;;20.90;9.05;;;;;;;;;;6251937;22;20318;-84
2023/05/30 03:27:09;;;;;;;18.08;8.23;;;;;;;;;;6252350;22;20041;-83
2023/05/30 03:29:35;;;;;;;16.63;8.63;;;;;;;;;;6278244;22;20057;-83
2023/05/30 03:32:01;;;;;;;18.95;8.13;;;;;;;;;;6278298;22;20011;-83
2023/05/30 03:34:27;;;;;;;16.85;8.18;;;;;;;;;;6252342;22;20542;-83
2023/05/30 03:36:53;;;;;;;14.77;8.27;;;;;;;;;;6278407;22;20042;-84
2023/05/30 03:39:20;;;;;;;20.75;9.10;;;;;;;;;;6251726;22;20019;-84
2023/05/30 03:41:46;;;;;;;20.80;9.10;;;;;;;;;;6277934;22;20015;-84
2023/05/30 03:44:12;;;;;;;22.08;9.32;;;;;;;;;;6278270;22;20022;-83
2023/05/30 03:46:38;;;;;;;19.00;8.15;;;;;;;;;;6277768;22;20008;-84
2023/05/30 03:49:04;;;;;;;19.50;8.60;;;;;;;;;;6277583;22;20012;-83
2023/05/30 03:51:30;;;;;;;24.55;10.30;;;;;;;;;;6277593;22;20041;-84
2023/05/30 03:53:57;;;;;;;17.00;7.47;;;;;;;;;;6276929;22;20350;-84
2023/05/30 03:56:23;;;;;;;22.08;8.13;;;;;;;;;;6277448;22;20413;-83
2023/05/30 03:58:49;;;;;;;24.02;7.93;;;;;;;;;;6305405;22;20007;-83
2023/05/30 04:01:15;;;;;;;19.75;8.18;;;;;;;;;;6252030;22;20019;-83
2023/05/30 04:03:42;;;;;;;16.92;7.32;;;;;;;;;;6277372;22;20007;-83
2023/05/30 04:06:10;;;;;;;14.60;6.85;;;;;;;;;;6302106;22;20014;-84
2023/05/30 04:08:40;;;;;;;15.20;6.80;;;;;;;;;;6276478;22;20011;-83
2023/05/30 04:11:06;;;;;;;17.60;6.55;;;;;;;;;;6277576;22;20022;-84
2023/05/30 04:13:32;;;;;;;17.60;7.45;;;;;;;;;;6251520;22;20023;-84
2023/05/30 04:16:01;;;;;;;19.77;8.35;;;;;;;;;;6251465;22;20015;-83
2023/05/30 04:18:27;;;;;;;22.23;6.95;;;;;;;;;;6251683;22;20060;-84
2023/05/30 04:20:53;;;;;;;19.48;6.90;;;;;;;;;;6276922;22;20015;-84
2023/05/30 04:23:20;;;;;;;21.42;7.00;;;;;;;;;;6251145;22;20049;-84
2023/05/30 04:25:47;;;;;;;17.58;7.13;;;;;;;;;;6277004;22;20022;-84
2023/05/30 04:28:16;;;;;;;16.55;7.15;;;;;;;;;;6304570;22;20011;-83
2023/05/30 04:30:42;;;;;;;17.08;6.70;;;;;;;;;;6304350;22;20022;-83
2023/05/30 04:33:09;;;;;;;13.80;6.13;;;;;;;;;;6277109;22;20346;-83
2023/05/30 04:35:35;;;;;;;16.10;6.65;;;;;;;;;;6251486;22;20015;-83
2023/05/30 04:38:01;;;;;;;19.30;7.10;;;;;;;;;;6250701;22;20011;-84
2023/05/30 04:40:27;;;;;;;18.45;6.65;;;;;;;;;;6277314;22;20012;-84
2023/05/30 04:42:55;;;;;;;20.00;7.28;;;;;;;;;;6304233;22;20015;-83
2023/05/30 04:45:28;;;;;;;18.48;7.40;;;;;;;;;;6277374;22;20019;-83
2023/05/30 04:47:54;;;;;;;21.77;7.18;;;;;;;;;;6277499;22;20015;-82
2023/05/30 04:50:20;;;;;;;19.27;7.00;;;;;;;;;;6304467;22;20342;-83
2023/05/30 04:52:46;;;;;;;22.95;6.55;;;;;;;;;;6276594;22;20019;-83
2023/05/30 04:55:13;;;;;;;17.70;6.47;;;;;;;;;;6252327;22;20030;-82
2023/05/30 04:57:39;;;;;;;20.50;7.95;;;;;;;;;;6253668;22;20137;-82
2023/05/30 05:00:15;;;;;;;15.23;7.10;;;;;;;;;;6278127;22;20077;-83
2023/05/30 05:02:42;;;;;;;21.80;7.03;;;;;;;;;;6278479;22;20022;-83
2023/05/30 05:05:08;;;;;;;20.85;7.35;;;;;;;;;;6306726;22;20065;-80
2023/05/30 05:07:34;;;;;;;20.23;7.68;;;;;;;;;;6278386;22;20070;-83
2023/05/30 05:10:01;;;;;;;20.10;7.03;;;;;;;;;;6260139;22;20018;-83
2023/05/30 05:12:27;;;;;;;15.73;7.70;;;;;;;;;;6285606;22;20007;-84
2023/05/30 05:14:57;;;;;;;17.02;7.55;;;;;;;;;;6252023;22;20456;-83
2023/05/30 05:17:23;;;;;;;17.67;6.93;;;;;;;;;;6277987;22;20007;-83
2023/05/30 05:19:49;;;;;;;17.58;6.47;;;;;;;;;;6278506;22;20050;-84
2023/05/30 05:22:15;;;;;;;15.43;7.18;;;;;;;;;;6251150;22;20011;-83
2023/05/30 05:24:41;;;;;;;20.38;8.32;;;;;;;;;;6251272;22;20099;-84
2023/05/30 05:27:07;;;;;;;20.15;7.28;;;;;;;;;;6304072;22;20011;-83
2023/05/30 05:29:33;;;;;;;24.55;7.53;;;;;;;;;;6252772;22;20020;-84
2023/05/30 05:31:59;;;;;;;19.15;6.72;;;;;;;;;;6279769;22;20012;-84
2023/05/30 05:34:25;;;;;;;17.50;7.82;;;;;;;;;;6280825;22;20051;-84
2023/05/30 05:36:54;;;;;;;22.95;8.23;;;;;;;;;;6254469;22;20090;-83
2023/05/30 05:39:20;;;;;;;14.48;6.95;;;;;;;;;;6281339;22;20292;-83
2023/05/30 05:41:47;;;;;;;20.65;8.02;;;;;;;;;;6254151;22;20023;-83
2023/05/30 05:44:13;;;;;;;22.35;8.43;;;;;;;;;;6278705;22;20402;-84
2023/05/30 05:46:39;;;;;;;20.38;7.30;;;;;;;;;;6279053;22;20019;-83
2023/05/30 05:49:05;;;;;;;16.98;6.55;;;;;;;;;;6306233;22;20073;-84
2023/05/30 05:51:31;;;;;;;18.67;7.57;;;;;;;;;;6252569;22;20017;-84
2023/05/30 05:53:57;;;;;;;14.30;7.18;;;;;;;;;;6273457;22;20015;-83
2023/05/30 05:56:23;;;;;;;17.88;6.88;;;;;;;;;;6274100;22;20047;-84
2023/05/30 05:58:49;;;;;;;14.32;7.63;;;;;;;;;;6273292;22;20019;-84
2023/05/30 06:01:16;;;;;;;14.93;7.55;;;;;;;;;;6247865;22;20042;-84
2023/05/30 06:03:42;;;;;;;13.18;7.15;;;;;;;;;;6273893;22;20008;-83
2023/05/30 06:06:08;;;;;;;14.05;6.38;;;;;;;;;;6274780;22;20086;-84
2023/05/30 06:08:34;;;;;;;17.85;6.88;;;;;;;;;;6275421;22;20427;-84
2023/05/30 06:11:00;;;;;;;14.00;7.32;;;;;;;;;;6273298;22;20035;-83
2023/05/30 06:13:26;;;;;;;10.38;6.25;;;;;;;;;;6274991;22;20015;-83
2023/05/30 06:15:52;;;;;;;13.43;6.90;;;;;;;;;;6273741;22;20373;-83
2023/05/30 06:18:18;;;;;;;14.40;7.15;;;;;;;;;;6247719;22;20019;-84
2023/05/30 06:20:44;;;;;;;15.52;7.70;;;;;;;;;;6273190;22;20016;-84
2023/05/30 06:23:10;;;;;;;19.10;6.93;;;;;;;;;;6247961;22;20011;-84
2023/05/30 06:25:36;;;;;;;14.02;6.88;;;;;;;;;;6273163;22;20015;-84
2023/05/30 06:28:02;;;;;;;8.77;6.60;;;;;;;;;;6273048;22;20011;-84
2023/05/30 06:30:28;;;;;;;12.38;6.70;;;;;;;;;;6247887;22;20022;-84
2023/05/30 06:32:54;;;;;;;13.98;6.40;;;;;;;;;;6275133;22;20011;-84
2023/05/30 06:35:20;;;;;;;13.85;6.45;;;;;;;;;;6274511;22;20014;-84
2023/05/30 06:37:46;;;;;;;14.00;7.18;;;;;;;;;;6273505;22;20012;-84
2023/05/30 06:40:12;;;;;;;13.05;6.60;;;;;;;;;;6247539;22;20050;-84
2023/05/30 06:42:38;;;;;;;17.40;10.55;;;;;;;;;;6247555;22;20022;-84
2023/05/30 06:45:04;;;;;;;12.02;6.95;;;;;;;;;;6273337;22;20016;-84
2023/05/30 06:47:30;;;;;;;14.20;7.00;;;;;;;;;;6272903;22;20099;-84
2023/05/30 06:49:56;;;;;;;13.45;5.88;;;;;;;;;;6246590;22;20047;-84
2023/05/30 06:52:22;;;;;;;10.65;5.90;;;;;;;;;;6272903;22;20092;-83
2023/05/30 06:54:48;;;;;;;14.32;8.70;;;;;;;;;;6273050;22;20014;-84
2023/05/30 06:57:14;;;;;;;11.00;5.68;;;;;;;;;;6247571;22;20026;-84
2023/05/30 06:59:41;;;;;;;11.65;6.25;;;;;;;;;;6247354;22;20061;-84
2023/05/30 07:02:07;;;;;;;13.93;6.03;;;;;;;;;;6272317;22;20023;-84
2023/05/30 07:04:33;;;;;;;13.68;6.40;;;;;;;;;;6274921;22;20019;-84
2023/05/30 07:06:59;;;;;;;10.40;5.93;;;;;;;;;;6247285;22;20038;-84
2023/05/30 07:09:26;;;;;;;10.10;5.93;;;;;;;;;;6279455;22;20019;-84
2023/05/30 07:11:52;;;;;;;14.20;6.30;;;;;;;;;;6278221;22;20046;-83
2023/05/30 07:14:18;;;;;;;10.65;6.28;;;;;;;;;;6281706;22;20050;-84
2023/05/30 07:16:44;;;;;;;10.05;6.15;;;;;;;;;;6257564;22;20019;-84
2023/05/30 07:19:10;;;;;;;13.18;6.20;;;;;;;;;;6253725;22;20027;-84
2023/05/30 07:21:36;;;;;;;8.15;6.22;;;;;;;;;;6272871;22;20016;-84
2023/05/30 07:24:03;;;;;;;11.95;6.55;;;;;;;;;;6247689;22;20054;-84
2023/05/30 07:26:29;;;;;;;11.25;6.13;;;;;;;;;;6272859;22;20058;-83
2023/05/30 07:28:57;;;;;;;9.38;5.78;;;;;;;;;;6273121;22;20014;-84
2023/05/30 07:31:23;;;;;;;10.70;5.28;;;;;;;;;;6273888;22;20149;-84
2023/05/30 07:33:49;;;;;;;10.40;6.20;;;;;;;;;;6272792;22;20008;-84
2023/05/30 07:36:15;;;;;;;9.90;6.50;;;;;;;;;;6272495;22;20100;-85
2023/05/30 07:38:41;;;;;;;7.38;6.57;;;;;;;;;;6272999;22;20089;-84
2023/05/30 07:41:07;;;;;;;7.82;6.60;;;;;;;;;;6272529;22;20016;-83
2023/05/30 07:43:33;;;;;;;9.15;6.38;;;;;;;;;;6272117;22;20011;-84
2023/05/30 07:45:59;;;;;;;9.48;5.93;;;;;;;;;;6246247;22;20012;-84
2023/05/30 07:48:25;;;;;;;9.07;6.13;;;;;;;;;;6272894;22;20024;-85
2023/05/30 07:50:51;;;;;;;10.48;6.00;;;;;;;;;;6272158;22;20389;-84
2023/05/30 07:53:17;;;;;;;10.82;5.60;;;;;;;;;;6295619;22;20019;-84
2023/05/30 07:55:43;;;;;;;7.45;5.38;;;;;;;;;;6277204;22;20019;-83
2023/05/30 07:58:09;;;;;;;10.43;5.18;;;;;;;;;;6305096;22;20339;-84
2023/05/30 08:00:35;;;;;;;8.25;5.57;;;;;;;;;;6276883;22;20011;-84
2023/05/30 08:03:01;;;;;;;8.38;5.78;;;;;;;;;;6251285;22;20003;-85
2023/05/30 08:05:27;;;;;;;10.60;5.88;;;;;;;;;;6251713;22;20037;-84
2023/05/30 08:07:53;;;;;;;7.45;5.32;;;;;;;;;;6251612;22;20084;-84
2023/05/30 08:10:19;;;;;;;5.88;3.95;;;;;;;;;;6304902;22;20426;-84
2023/05/30 08:12:45;;;;;;;7.15;4.78;;;;;;;;;;6277420;22;20391;-84
2023/05/30 08:15:11;;;;;;;13.98;4.97;;;;;;;;;;6277286;22;20043;-84
2023/05/30 08:17:37;;;;;;;8.60;4.03;;;;;;;;;;6251414;22;20011;-84
2023/05/30 08:20:03;;;;;;;5.57;4.32;;;;;;;;;;6277324;22;20034;-84
2023/05/30 08:22:31;;;;;;;9.23;4.88;;;;;;;;;;6277101;22;20011;-85
2023/05/30 08:25:00;;;;;;;7.35;4.10;;;;;;;;;;6251925;22;20296;-84
2023/05/30 08:27:27;;;;;;;9.82;4.65;;;;;;;;;;6277555;22;20017;-84
2023/05/30 08:29:53;;;;;;;10.63;5.03;;;;;;;;;;6276532;22;20011;-84
2023/05/30 08:32:20;;;;;;;7.72;4.43;;;;;;;;;;6277512;22;20011;-84
2023/05/30 08:34:49;;;;;;;8.27;4.65;;;;;;;;;;6277494;22;20015;-83
2023/05/30 08:37:15;;;;;;;7.10;5.38;;;;;;;;;;6251581;22;20090;-84
2023/05/30 08:39:41;;;;;;;10.57;5.55;;;;;;;;;;6251984;22;20094;-85
2023/05/30 08:42:08;;;;;;;10.35;4.43;;;;;;;;;;6277152;22;20012;-84
2023/05/30 08:44:34;;;;;;;8.35;4.63;;;;;;;;;;6251148;22;20011;-84
2023/05/30 08:47:00;;;;;;;6.15;3.97;;;;;;;;;;6277362;22;20464;-85
2023/05/30 08:49:28;;;;;;;9.80;4.70;;;;;;;;;;6304907;22;20023;-85
2023/05/30 08:51:54;;;;;;;13.45;4.72;;;;;;;;;;6304551;22;20043;-85
2023/05/30 08:54:27;;;;;;;6.43;4.50;;;;;;;;;;6277041;22;20015;-85
2023/05/30 08:56:58;;;;;;;6.80;4.97;;;;;;;;;;6277250;22;20086;-84
2023/05/30 08:59:25;;;;;;;8.65;3.65;;;;;;;;;;6277072;22;20257;-85
2023/05/30 09:01:53;;;;;;;6.80;3.20;;;;;;;;;;6277653;22;20369;-84
2023/05/30 09:04:19;;;;;;;6.32;4.03;;;;;;;;;;6304807;22;20027;-84
2023/05/30 09:06:46;;;;;;;6.75;3.70;;;;;;;;;;6251602;22;20094;-85
2023/05/30 09:09:13;;;;;;;5.15;3.13;;;;;;;;;;6251923;22;20019;-85
2023/05/30 09:11:40;;;;;;;7.70;3.13;;;;;;;;;;6305323;22;20014;-85
2023/05/30 09:14:06;;;;;;;5.88;4.15;;;;;;;;;;6281536;22;20007;-84
2023/05/30 09:16:32;;;;;;;6.47;3.38;;;;;;;;;;6309983;22;20080;-85
2023/05/30 09:18:59;;;;;;;7.07;4.10;;;;;;;;;;6261683;22;20361;-85
2023/05/30 09:21:25;;;;;;;6.72;3.22;;;;;;;;;;6315676;22;20019;-85
2023/05/30 09:23:51;;;;;;;9.95;4.88;;;;;;;;;;6311930;22;20008;-86
2023/05/30 09:26:18;;;;;;;7.00;3.85;;;;;;;;;;6259600;22;20011;-85
2023/05/30 09:28:48;;;;;;;4.20;3.20;;;;;;;;;;6279311;22;20080;-85
2023/05/30 09:31:15;;;;;;;5.53;2.97;;;;;;;;;;6279585;22;20015;-85
2023/05/30 09:33:47;;;;;;;4.85;2.78;;;;;;;;;;6279184;22;20007;-85
2023/05/30 09:36:20;;;;;;;4.15;2.50;;;;;;;;;;6306739;22;20011;-84
2023/05/30 09:38:46;;;;;;;;;;;;;;;;;;6279916;22;20038;-85
2023/05/30 09:41:12;;;;;;;3.25;2.13;;;;;;;;;;6253049;22;19917;-85
2023/05/30 09:43:38;;;;;;;3.97;2.05;;;;;;;;;;6305662;22;20011;-85
2023/05/30 09:46:05;;;;;;;4.95;2.25;;;;;;;;;;6252845;22;20319;-85
2023/05/30 09:48:32;;;;;;;2.83;2.05;;;;;;;;;;6278644;22;20023;-85
2023/05/30 09:50:59;;;;;;;3.95;2.20;;;;;;;;;;6278295;22;20189;-85
2023/05/30 09:53:30;;;;;;;4.05;2.45;;;;;;;;;;6252812;22;20084;-85
2023/05/30 09:55:56;;;;;;;2.70;2.20;;;;;;;;;;6253020;22;20054;-85
2023/05/30 09:58:22;;;;;;;5.10;2.40;;;;;;;;;;6305598;22;20011;-85
2023/05/30 10:00:52;;;;;;;5.07;2.47;;;;;;;;;;6253419;22;20007;-85
2023/05/30 10:03:19;;;;;;;3.55;2.47;;;;;;;;;;6278298;22;20011;-85
2023/05/30 10:05:46;;;;;;;2.75;2.10;;;;;;;;;;6306175;22;20086;-84
2023/05/30 10:08:15;;;;;;;4.18;1.98;;;;;;;;;;6253155;22;20429;-85
2023/05/30 10:10:41;;;;;;;3.75;2.17;;;;;;;;;;6251993;22;20445;-85
2023/05/30 10:13:07;;;;;;;4.75;2.28;;;;;;;;;;6252632;22;20018;-84
2023/05/30 10:15:34;;;;;;;5.05;2.10;;;;;;;;;;6278620;22;20018;-85
2023/05/30 10:18:00;;;;;;;3.97;2.08;;;;;;;;;;6278230;22;20011;-84
2023/05/30 10:20:27;;;;;;;2.40;1.83;;;;;;;;;;6252795;22;20026;-85
2023/05/30 10:22:53;;;;;;;4.75;2.20;;;;;;;;;;6278074;22;20061;-84
2023/05/30 10:25:21;;;;;;;4.88;2.55;;;;;;;;;;6277314;22;20011;-85
2023/05/30 10:27:48;;;;;;;3.40;2.50;;;;;;;;;;6278795;22;20082;-85
2023/05/30 10:30:16;;;;;;;4.90;2.50;;;;;;;;;;6278508;22;20050;-85
2023/05/30 10:32:44;;;;;;;4.95;3.00;;;;;;;;;;6278500;22;20406;-84
2023/05/30 10:35:18;;;;;;;5.63;3.00;;;;;;;;;;6305860;22;20007;-85
2023/05/30 10:37:45;;;;;;;5.90;2.92;;;;;;;;;;6278552;22;20025;-85
2023/05/30 10:40:16;;;;;;;4.72;3.60;;;;;;;;;;6277858;22;20015;-85
2023/05/30 10:42:45;;;;;;;3.47;2.72;;;;;;;;;;6278195;22;20026;-85
2023/05/30 10:45:15;;;;;;;4.75;3.67;;;;;;;;;;6252980;22;20098;-85
2023/05/30 10:47:48;;;;;;;4.85;3.63;;;;;;;;;;6278615;22;20008;-85
2023/05/30 10:50:19;;;;;;;4.35;3.90;;;;;;;;;;6252544;22;20015;-84
2023/05/30 10:52:47;;;;;;;6.53;2.90;;;;;;;;;;6305492;22;20019;-84
2023/05/30 10:55:14;;;;;;;3.92;2.75;;;;;;;;;;6252183;22;20015;-85
2023/05/30 10:57:41;;;;;;;4.03;2.63;;;;;;;;;;6252469;22;20007;-85
2023/05/30 11:00:18;;;;;;;3.22;1.92;;;;;;;;;;6252497;22;20015;-85
2023/05/30 11:02:49;;;;;;;4.15;2.20;;;;;;;;;;6252490;22;20011;-85
2023/05/30 11:05:18;;;;;;;2.58;1.90;;;;;;;;;;6252439;22;20007;-84
2023/05/30 11:07:44;;;;;;;2.80;1.90;;;;;;;;;;6278089;22;20485;-85
2023/05/30 11:10:12;;;;;;;4.10;2.30;;;;;;;;;;6304978;22;20011;-84
2023/05/30 11:12:43;;;;;;;3.38;1.90;;;;;;;;;;6278292;22;20027;-85
2023/05/30 11:15:09;;;;;;;3.15;2.08;;;;;;;;;;6305855;22;20007;-85
2023/05/30 11:17:37;;;;;;;3.08;1.85;;;;;;;;;;6285178;22;20041;-85
2023/05/30 11:20:07;;;;;;;4.45;1.85;;;;;;;;;;6281701;22;20019;-84
2023/05/30 11:22:33;;;;;;;4.43;1.98;;;;;;;;;;6314443;22;20022;-85
2023/05/30 11:25:17;;;;;;;4.53;2.10;;;;;;;;;;6277831;22;20011;-85
2023/05/30 11:28:02;;;;;;;6.05;1.88;;;;;;;;;;6277948;22;20484;-85
2023/05/30 11:30:29;;;;;;;3.38;2.00;;;;;;;;;;6277599;22;20265;-85
2023/05/30 11:32:59;;;;;;;4.22;2.00;;;;;;;;;;6277440;22;20057;-85
2023/05/30 11:35:28;;;;;;;2.55;1.75;;;;;;;;;;6277317;22;20015;-85
2023/05/30 11:37:55;;;;;;;3.33;1.75;;;;;;;;;;6277103;22;20083;-84
2023/05/30 11:40:24;;;;;;;3.95;1.85;;;;;;;;;;6277533;22;20094;-84
2023/05/30 11:42:51;;;;;;;3.28;2.05;;;;;;;;;;6278010;22;20089;-85
2023/05/30 11:45:18;;;;;;;4.38;1.90;;;;;;;;;;6277931;22;20011;-84
2023/05/30 11:47:44;;;;;;;4.10;1.75;;;;;;;;;;6277428;22;20415;-84
2023/05/30 11:50:10;;;;;;;2.90;1.60;;;;;;;;;;6251932;22;20065;-84
2023/05/30 11:52:39;;;;;;;3.33;1.90;;;;;;;;;;6276817;22;20026;-85
2023/05/30 11:55:06;;;;;;;3.60;1.60;;;;;;;;;;6305154;22;20049;-85
2023/05/30 11:57:32;;;;;;;2.45;1.60;;;;;;;;;;6304841;22;20497;-84
2023/05/30 11:59:58;;;;;;;3.83;1.95;;;;;;;;;;6277394;22;20050;-84
2023/05/30 12:02:27;;;;;;;4.28;1.75;;;;;;;;;;6304859;22;20019;-84
2023/05/30 12:05:03;;;;;;;2.15;1.52;;;;;;;;;;6251914;22;20041;-84
2023/05/30 12:07:29;;;;;;;3.35;1.80;;;;;;;;;;6276772;22;20015;-85
2023/05/30 12:09:55;;;;;;;5.68;1.67;;;;;;;;;;6305245;22;20015;-84
2023/05/30 12:12:22;;;;;;;2.95;1.92;;;;;;;;;;6277387;22;20011;-84
2023/05/30 12:14:49;;;;;;;2.90;1.67;;;;;;;;;;6252018;22;20011;-84
2023/05/30 12:17:20;;;;;;;3.42;1.85;;;;;;;;;;6252103;22;20015;-85
2023/05/30 12:19:46;;;;;;;3.63;1.83;;;;;;;;;;6251748;22;20011;-84
2023/05/30 12:22:15;;;;;;;3.45;1.98;;;;;;;;;;6304162;22;20369;-84
2023/05/30 12:24:41;;;;;;;3.38;2.05;;;;;;;;;;6305168;22;20325;-84
2023/05/30 12:27:15;;;;;;;3.35;2.00;;;;;;;;;;6277759;22;20015;-85
2023/05/30 12:29:41;;;;;;;4.88;2.05;;;;;;;;;;6277401;22;20481;-84
2023/05/30 12:32:07;;;;;;;4.22;2.08;;;;;;;;;;6251710;22;20446;-85
2023/05/30 12:34:41;;;;;;;3.53;2.00;;;;;;;;;;6277473;22;20057;-85
2023/05/30 12:37:08;;;;;;;3.30;2.08;;;;;;;;;;6250759;22;20030;-84
2023/05/30 12:39:34;;;;;;;5.03;2.58;;;;;;;;;;6251589;22;20025;-85
2023/05/30 12:42:07;;;;;;;5.15;2.15;;;;;;;;;;6277107;22;20018;-84
2023/05/30 12:44:43;;;;;;;7.75;1.98;;;;;;;;;;6277571;22;20026;-85
2023/05/30 12:47:09;;;;;;;3.97;2.00;;;;;;;;;;6251884;22;20011;-85
2023/05/30 12:49:36;;;;;;;4.93;2.03;;;;;;;;;;6251257;22;20073;-85
2023/05/30 12:52:02;;;;;;;3.90;2.00;;;;;;;;;;6276354;22;20019;-85
2023/05/30 12:54:28;;;;;;;3.25;2.20;;;;;;;;;;6277628;22;20145;-85
2023/05/30 12:56:54;;;;;;;5.38;1.98;;;;;;;;;;6251607;22;20026;-85
2023/05/30 12:59:20;;;;;;;3.17;1.67;;;;;;;;;;6277058;22;20007;-85
2023/05/30 13:01:46;;;;;;;3.10;1.60;;;;;;;;;;6251644;22;20426;-85
2023/05/30 13:04:12;;;;;;;8.55;1.92;;;;;;;;;;6277060;22;20524;-85
2023/05/30 13:06:38;;;;;;;4.25;2.20;;;;;;;;;;6250770;22;20149;-84
2023/05/30 13:09:06;;;;;;;4.07;2.20;;;;;;;;;;6277546;22;20054;-85
2023/05/30 13:11:32;;;;;;;3.33;2.10;;;;;;;;;;6277054;22;20295;-85
2023/05/30 13:13:58;;;;;;;3.45;2.13;;;;;;;;;;6276779;22;20016;-86
2023/05/30 13:16:24;;;;;;;3.83;2.40;;;;;;;;;;6277317;22;20355;-85
2023/05/30 13:18:50;;;;;;;3.90;2.22;;;;;;;;;;6279882;22;20046;-85
2023/05/30 13:21:16;;;;;;;3.58;2.00;;;;;;;;;;6255782;22;20015;-84
2023/05/30 13:23:42;;;;;;;3.20;2.05;;;;;;;;;;6255742;22;20071;-86
2023/05/30 13:26:10;;;;;;;3.53;1.73;;;;;;;;;;6282712;22;20018;-85
2023/05/30 13:28:36;;;;;;;3.10;1.85;;;;;;;;;;6277073;22;20015;-85
2023/05/30 13:31:03;;;;;;;3.58;2.08;;;;;;;;;;6304222;22;20076;-85
2023/05/30 13:33:30;;;;;;;5.88;2.30;;;;;;;;;;6251122;22;20019;-85
2023/05/30 13:35:58;;;;;;;3.33;1.95;;;;;;;;;;6250406;22;20011;-85
2023/05/30 13:38:25;;;;;;;5.25;1.77;;;;;;;;;;6276499;22;20022;-85
2023/05/30 13:40:52;;;;;;;3.63;2.10;;;;;;;;;;6276535;22;20093;-85
2023/05/30 13:43:20;;;;;;;4.57;2.08;;;;;;;;;;6277125;22;20421;-85
2023/05/30 13:45:46;;;;;;;2.58;1.70;;;;;;;;;;6276512;22;20430;-85
2023/05/30 13:48:15;;;;;;;3.15;1.60;;;;;;;;;;6250836;22;20066;-85
2023/05/30 13:50:41;;;;;;;3.38;1.70;;;;;;;;;;6277011;22;20012;-85
2023/05/30 13:53:08;;;;;;;4.43;1.70;;;;;;;;;;6271737;22;20054;-85
2023/05/30 13:55:34;;;;;;;4.03;1.83;;;;;;;;;;6271751;22;20128;-84
2023/05/30 13:58:00;;;;;;;4.90;1.70;;;;;;;;;;6246127;22;20012;-85
2023/05/30 14:00:26;;;;;;;3.20;1.77;;;;;;;;;;6274280;22;20023;-84
2023/05/30 14:02:53;;;;;;;4.13;1.85;;;;;;;;;;6273334;22;20442;-85
2023/05/30 14:05:20;;;;;;;3.08;1.80;;;;;;;;;;6273898;22;20062;-83
2023/05/30 14:07:48;;;;;;;3.45;2.20;;;;;;;;;;6273563;22;20018;-85
2023/05/30 14:10:17;;;;;;;3.40;1.75;;;;;;;;;;6248518;22;20012;-85
2023/05/30 14:12:44;;;;;;;3.45;1.67;;;;;;;;;;6273909;22;20057;-85
2023/05/30 14:15:15;;;;;;;2.55;1.70;;;;;;;;;;6273984;22;20018;-85
2023/05/30 14:17:41;;;;;;;3.85;1.80;;;;;;;;;;6272973;22;20053;-85
2023/05/30 14:20:08;;;;;;;3.17;1.92;;;;;;;;;;6248198;22;20019;-85
2023/05/30 14:22:34;;;;;;;3.88;2.40;;;;;;;;;;6248051;22;20051;-85
2023/05/30 14:25:00;;;;;;;3.92;2.38;;;;;;;;;;6274052;22;20414;-85
2023/05/30 14:27:26;;;;;;;3.72;2.40;;;;;;;;;;6273921;22;20015;-84
2023/05/30 14:29:52;;;;;;;4.43;2.20;;;;;;;;;;6273857;22;20054;-84
2023/05/30 14:32:19;;;;;;;9.68;8.68;;;;;;;;;;6247386;22;20008;-85
2023/05/30 14:34:44;;;;;;;6.57;4.25;;;;;;;;;;6247522;22;20012;-85